METAR Data
IDs: Format: Raw Decoded Include TAF

Data at: 2135 UTC 02 Oct 2022

Region: @TOP
METAR for:KATL (Atlanta/Hartsfield I, GA, US)
Text:KATL 022052Z 30012KT 10SM FEW044 24/12 A2998 RMK AO2 SLP148 T02440122 55003 $
Temperature: 24.4°C ( 76°F)
Dewpoint: 12.2°C ( 54°F) [RH = 47%]
Pressure (altimeter):29.98 inches Hg (1015.3 mb) [Sea level pressure: 1014.8 mb]
Winds:from the WNW (300 degrees) at 14 MPH (12 knots; 6.2 m/s)
Visibility:10 or more sm (16+ km)
Ceiling:at least 12,000 feet AGL
Clouds: few clouds at 4400 feet AGL
QC Flag:SOME DATA ABOVE MAY BE INACCURATE!!!"$" is an indication the sensor requires maintenance.

METAR for:KBOS (Boston/Logan Intl, MA, US)
Text:KBOS 022054Z 04018G28KT 10SM FEW035 SCT140 BKN210 12/02 A3024 RMK AO2 PK WND 04028/2048 SLP240 T01170017 53005
Temperature: 11.7°C ( 53°F)
Dewpoint: 1.7°C ( 35°F) [RH = 50%]
Pressure (altimeter):30.24 inches Hg (1024.1 mb) [Sea level pressure: 1024.0 mb]
Winds:from the NE (40 degrees) at 21 MPH (18 knots; 9.3 m/s) gusting to 32 MPH (28 knots; 14.4 m/s)
Visibility:10 or more sm (16+ km)
Ceiling:21000 feet AGL
Clouds: few clouds at 3500 feet AGL, scattered clouds at 14000 feet AGL, broken clouds at 21000 feet AGL

METAR for:KBWI (Baltimore-Washington, MD, US)
Text:KBWI 022054Z 02007KT 1 1/2SM -RA BR BKN012 BKN019 OVC026 14/12 A3006 RMK AO2 SLP177 P0006 60019 T01390122 53014 $
Temperature: 13.9°C ( 57°F)
Dewpoint: 12.2°C ( 54°F) [RH = 89%]
Pressure (altimeter):30.06 inches Hg (1018.0 mb) [Sea level pressure: 1017.7 mb]
Winds:from the NNE (20 degrees) at 8 MPH (7 knots; 3.6 m/s)
Visibility: 1.50 sm ( 2.41 km)
Ceiling:1200 feet AGL
Clouds: broken clouds at 1200 feet AGL, broken clouds at 1900 feet AGL, overcast cloud deck at 2600 feet AGL
Weather:-RA BR (light rain, mist)
QC Flag:SOME DATA ABOVE MAY BE INACCURATE!!!"$" is an indication the sensor requires maintenance.

METAR for:KCLE (Cleveland/Hopkins In, OH, US)
Text:KCLE 022051Z 05020G27KT 10SM FEW025 14/06 A3026 RMK AO2 PK WND 04028/2040 SLP261 T01440061 53001 $
Temperature: 14.4°C ( 58°F)
Dewpoint: 6.1°C ( 43°F) [RH = 57%]
Pressure (altimeter):30.26 inches Hg (1024.8 mb) [Sea level pressure: 1026.1 mb]
Winds:from the NE (50 degrees) at 23 MPH (20 knots; 10.3 m/s) gusting to 31 MPH (27 knots; 13.9 m/s)
Visibility:10 or more sm (16+ km)
Ceiling:at least 12,000 feet AGL
Clouds: few clouds at 2500 feet AGL
QC Flag:SOME DATA ABOVE MAY BE INACCURATE!!!"$" is an indication the sensor requires maintenance.

METAR for:KCLT (Charlotte/Douglas In, NC, US)
Text:KCLT 022052Z 01011G18KT 340V040 10SM BKN034 18/11 A2999 RMK SLP153 T01780111 53007 $
Temperature: 17.8°C ( 64°F)
Dewpoint: 11.1°C ( 52°F) [RH = 65%]
Pressure (altimeter):29.99 inches Hg (1015.7 mb) [Sea level pressure: 1015.3 mb]
Winds:from the N (10 degrees) at 13 MPH (11 knots; 5.7 m/s) gusting to 21 MPH (18 knots; 9.3 m/s)
Visibility:10 or more sm (16+ km)
Ceiling:3400 feet AGL
Clouds: broken clouds at 3400 feet AGL
QC Flag:SOME DATA ABOVE MAY BE INACCURATE!!!"$" is an indication the sensor requires maintenance.

METAR for:KCVG (Cincinnati Intl, KY, US)
Text:KCVG 022052Z 03014G20KT 10SM SCT040 20/09 A3018 RMK AO2 SLP217 T02000089 55001
Temperature: 20.0°C ( 68°F)
Dewpoint: 8.9°C ( 48°F) [RH = 49%]
Pressure (altimeter):30.18 inches Hg (1022.1 mb) [Sea level pressure: 1021.7 mb]
Winds:from the NNE (30 degrees) at 16 MPH (14 knots; 7.2 m/s) gusting to 23 MPH (20 knots; 10.3 m/s)
Visibility:10 or more sm (16+ km)
Ceiling:at least 12,000 feet AGL
Clouds: scattered clouds at 4000 feet AGL

METAR for:KDCA (Washington/National, VA, US)
Text:KDCA 022132Z 03014KT 2 1/2SM -RA BR SCT009 OVC017 14/13 A3007 RMK AO2 PK WND 04026/2100 P0005 T01390128 $
Temperature: 13.9°C ( 57°F)
Dewpoint: 12.8°C ( 55°F) [RH = 93%]
Pressure (altimeter):30.07 inches Hg (1018.4 mb)
Winds:from the NNE (30 degrees) at 16 MPH (14 knots; 7.2 m/s)
Visibility: 2.50 sm ( 4.02 km)
Ceiling:1700 feet AGL
Clouds: scattered clouds at 900 feet AGL, overcast cloud deck at 1700 feet AGL
Weather:-RA BR (light rain, mist)
QC Flag:SOME DATA ABOVE MAY BE INACCURATE!!!"$" is an indication the sensor requires maintenance.

METAR for:KDEN (Denver Intl, CO, US)
Text:KDEN 022053Z 16016G22KT 10SM FEW060 SCT140 BKN200 22/07 A3015 RMK AO2 SLP150 T02170072 58014
Temperature: 21.7°C ( 71°F)
Dewpoint: 7.2°C ( 45°F) [RH = 39%]
Pressure (altimeter):30.15 inches Hg (1021.1 mb) [Sea level pressure: 1015.0 mb]
Winds:from the SSE (160 degrees) at 18 MPH (16 knots; 8.2 m/s) gusting to 25 MPH (22 knots; 11.3 m/s)
Visibility:10 or more sm (16+ km)
Ceiling:20000 feet AGL
Clouds: few clouds at 6000 feet AGL, scattered clouds at 14000 feet AGL, broken clouds at 20000 feet AGL

METAR for:KDFW (Dallas-Ft Worth Intl, TX, US)
Text:KDFW 022053Z 05006KT 10SM FEW250 28/06 A3011 RMK AO2 SLP188 T02830061 56026
Temperature: 28.3°C ( 83°F)
Dewpoint: 6.1°C ( 43°F) [RH = 24%]
Pressure (altimeter):30.11 inches Hg (1019.7 mb) [Sea level pressure: 1018.8 mb]
Winds:from the NE (50 degrees) at 7 MPH (6 knots; 3.1 m/s)
Visibility:10 or more sm (16+ km)
Ceiling:at least 12,000 feet AGL
Clouds: few clouds at 25000 feet AGL

METAR for:KDTW (Detroit Metro/Wayne, MI, US)
Text:KDTW 022053Z 02014G22KT 10SM FEW030 FEW250 19/02 A3030 RMK AO2 SLP260 T01890022 56008
Temperature: 18.9°C ( 66°F)
Dewpoint: 2.2°C ( 36°F) [RH = 33%]
Pressure (altimeter):30.30 inches Hg (1026.2 mb) [Sea level pressure: 1026.0 mb]
Winds:from the NNE (20 degrees) at 16 MPH (14 knots; 7.2 m/s) gusting to 25 MPH (22 knots; 11.3 m/s)
Visibility:10 or more sm (16+ km)
Ceiling:at least 12,000 feet AGL
Clouds: few clouds at 3000 feet AGL, few clouds at 25000 feet AGL

METAR for:KEWR (Newark Intl, NJ, US)
Text:KEWR 022051Z 04017G25KT 10SM SCT033 OVC055 12/06 A3011 RMK AO2 RAE24 SLP195 P0001 60001 T01220056 50002 $
Temperature: 12.2°C ( 54°F)
Dewpoint: 5.6°C ( 42°F) [RH = 64%]
Pressure (altimeter):30.11 inches Hg (1019.7 mb) [Sea level pressure: 1019.5 mb]
Winds:from the NE (40 degrees) at 20 MPH (17 knots; 8.7 m/s) gusting to 29 MPH (25 knots; 12.9 m/s)
Visibility:10 or more sm (16+ km)
Ceiling:5500 feet AGL
Clouds: scattered clouds at 3300 feet AGL, overcast cloud deck at 5500 feet AGL
QC Flag:SOME DATA ABOVE MAY BE INACCURATE!!!"$" is an indication the sensor requires maintenance.

METAR for:KFLL (Ft Lauderdale-Hollyw, FL, US)
Text:KFLL 022053Z 33005KT 10SM SCT036 BKN065 29/19 A2987 RMK AO2 SLP113 T02890189 56010
Temperature: 28.9°C ( 84°F)
Dewpoint: 18.9°C ( 66°F) [RH = 55%]
Pressure (altimeter):29.87 inches Hg (1011.6 mb) [Sea level pressure: 1011.3 mb]
Winds:from the NNW (330 degrees) at 6 MPH (5 knots; 2.6 m/s)
Visibility:10 or more sm (16+ km)
Ceiling:6500 feet AGL
Clouds: scattered clouds at 3600 feet AGL, broken clouds at 6500 feet AGL

METAR for:KIAD (Washington/Dulles In, VA, US)
Text:KIAD 022100Z 01012G19KT 8SM -RA SCT013 OVC023 13/12 A3007 RMK AO2 P0000 T01330117
Temperature: 13.3°C ( 56°F)
Dewpoint: 11.7°C ( 53°F) [RH = 90%]
Pressure (altimeter):30.07 inches Hg (1018.4 mb)
Winds:from the N (10 degrees) at 14 MPH (12 knots; 6.2 m/s) gusting to 22 MPH (19 knots; 9.8 m/s)
Visibility: 8 sm ( 13 km)
Ceiling:2300 feet AGL
Clouds: scattered clouds at 1300 feet AGL, overcast cloud deck at 2300 feet AGL
Weather:-RA (light rain)

METAR for:KIAH (Houston/Bush Intl, TX, US)
Text:KIAH 022053Z VRB05G14KT 10SM SCT250 29/08 A3007 RMK AO2 SLP182 T02940078 56020
Temperature: 29.4°C ( 85°F)
Dewpoint: 7.8°C ( 46°F) [RH = 26%]
Pressure (altimeter):30.07 inches Hg (1018.4 mb) [Sea level pressure: 1018.2 mb]
Winds:variable direction winds at 6 MPH (5 knots; 2.6 m/s) gusting to 16 MPH (14 knots; 7.2 m/s)
Visibility:10 or more sm (16+ km)
Ceiling:at least 12,000 feet AGL
Clouds: scattered clouds at 25000 feet AGL

METAR for:KJFK (New York/Kennedy Int, NY, US)
Text:KJFK 022051Z 02016G24KT 10SM FEW034 BKN055 OVC075 13/06 A3012 RMK AO2 PK WND 04029/2027 RAE1956B26E44 SLP197 P0000 60013 T01280061 53004
Temperature: 12.8°C ( 55°F)
Dewpoint: 6.1°C ( 43°F) [RH = 64%]
Pressure (altimeter):30.12 inches Hg (1020.1 mb) [Sea level pressure: 1019.7 mb]
Winds:from the NNE (20 degrees) at 18 MPH (16 knots; 8.2 m/s) gusting to 28 MPH (24 knots; 12.3 m/s)
Visibility:10 or more sm (16+ km)
Ceiling:5500 feet AGL
Clouds: few clouds at 3400 feet AGL, broken clouds at 5500 feet AGL, overcast cloud deck at 7500 feet AGL

METAR for:KLAS (Las Vegas/Reid Intl, NV, US)
Text:KLAS 022056Z 20009G15KT 10SM FEW100 FEW250 33/09 A2990 RMK AO2 LTG DSNT E SLP099 TCU DSNT NE-E CB DSNT E-SE SH DSNT SE T03280094 58020 $
Temperature: 32.8°C ( 91°F)
Dewpoint: 9.4°C ( 49°F) [RH = 24%]
Pressure (altimeter):29.90 inches Hg (1012.6 mb) [Sea level pressure: 1009.9 mb]
Winds:from the SSW (200 degrees) at 10 MPH (9 knots; 4.6 m/s) gusting to 17 MPH (15 knots; 7.7 m/s)
Visibility:10 or more sm (16+ km)
Ceiling:at least 12,000 feet AGL
Clouds: few clouds at 10000 feet AGL, few clouds at 25000 feet AGL
QC Flag:SOME DATA ABOVE MAY BE INACCURATE!!!"$" is an indication the sensor requires maintenance.

METAR for:KLAX (Los Angeles Intl, CA, US)
Text:KLAX 022053Z 26012KT 10SM FEW110 FEW180 SCT260 23/15 A2993 RMK AO2 SLP134 CB DSNT SE T02330150 58013
Temperature: 23.3°C ( 74°F)
Dewpoint: 15.0°C ( 59°F) [RH = 60%]
Pressure (altimeter):29.93 inches Hg (1013.6 mb) [Sea level pressure: 1013.4 mb]
Winds:from the W (260 degrees) at 14 MPH (12 knots; 6.2 m/s)
Visibility:10 or more sm (16+ km)
Ceiling:at least 12,000 feet AGL
Clouds: few clouds at 11000 feet AGL, few clouds at 18000 feet AGL, scattered clouds at 26000 feet AGL

METAR for:KLGA (New York/La Guardia, NY, US)
Text:KLGA 022051Z 03018KT 10SM BKN040 OVC055 13/04 A3012 RMK AO2 PK WND 04028/2004 RAE46 SLP200 P0000 60005 T01330039 53004
Temperature: 13.3°C ( 56°F)
Dewpoint: 3.9°C ( 39°F) [RH = 53%]
Pressure (altimeter):30.12 inches Hg (1020.1 mb) [Sea level pressure: 1020.0 mb]
Winds:from the NNE (30 degrees) at 21 MPH (18 knots; 9.3 m/s)
Visibility:10 or more sm (16+ km)
Ceiling:4000 feet AGL
Clouds: broken clouds at 4000 feet AGL, overcast cloud deck at 5500 feet AGL

METAR for:KMCO (Orlando Intl, FL, US)
Text:KMCO 022053Z 28009KT 10SM FEW060 30/11 A2987 RMK AO2 SLP112 T03000106 56013
Temperature: 30.0°C ( 86°F)
Dewpoint: 10.6°C ( 51°F) [RH = 30%]
Pressure (altimeter):29.87 inches Hg (1011.6 mb) [Sea level pressure: 1011.2 mb]
Winds:from the W (280 degrees) at 10 MPH (9 knots; 4.6 m/s)
Visibility:10 or more sm (16+ km)
Ceiling:at least 12,000 feet AGL
Clouds: few clouds at 6000 feet AGL

METAR for:KMDW (Chicago/Midway Intl, IL, US)
Text:KMDW 022053Z 02013KT 10SM FEW021 19/09 A3034 RMK AO2 SLP270 T01890094 56010
Temperature: 18.9°C ( 66°F)
Dewpoint: 9.4°C ( 49°F) [RH = 54%]
Pressure (altimeter):30.34 inches Hg (1027.5 mb) [Sea level pressure: 1027.0 mb]
Winds:from the NNE (20 degrees) at 15 MPH (13 knots; 6.7 m/s)
Visibility:10 or more sm (16+ km)
Ceiling:at least 12,000 feet AGL
Clouds: few clouds at 2100 feet AGL

METAR for:KMEM (Memphis Intl, TN, US)
Text:KMEM 022054Z 02009KT 10SM CLR 27/06 A3013 RMK AO2 SLP200 T02670061 56016
Temperature: 26.7°C ( 80°F)
Dewpoint: 6.1°C ( 43°F) [RH = 27%]
Pressure (altimeter):30.13 inches Hg (1020.4 mb) [Sea level pressure: 1020.0 mb]
Winds:from the NNE (20 degrees) at 10 MPH (9 knots; 4.6 m/s)
Visibility:10 or more sm (16+ km)
Ceiling:at least 12,000 feet AGL
Clouds:sky clear below 12,000 feet AGL

METAR for:KMIA (Miami Intl, FL, US)
Text:KMIA 022053Z 01008KT 340V040 10SM SCT047 BKN070 30/19 A2987 RMK AO2 SLP117 T03000189 56010 $
Temperature: 30.0°C ( 86°F)
Dewpoint: 18.9°C ( 66°F) [RH = 51%]
Pressure (altimeter):29.87 inches Hg (1011.6 mb) [Sea level pressure: 1011.7 mb]
Winds:from the N (10 degrees) at 9 MPH (8 knots; 4.1 m/s)
Visibility:10 or more sm (16+ km)
Ceiling:7000 feet AGL
Clouds: scattered clouds at 4700 feet AGL, broken clouds at 7000 feet AGL
QC Flag:SOME DATA ABOVE MAY BE INACCURATE!!!"$" is an indication the sensor requires maintenance.

METAR for:KMSP (Minneapolis-St Paul, MN, US)
Text:KMSP 022053Z 11012KT 10SM FEW120 SCT170 BKN250 23/08 A3029 RMK AO2 SLP256 ACC DSNT NE T02330078 56017
Temperature: 23.3°C ( 74°F)
Dewpoint: 7.8°C ( 46°F) [RH = 37%]
Pressure (altimeter):30.29 inches Hg (1025.8 mb) [Sea level pressure: 1025.6 mb]
Winds:from the ESE (110 degrees) at 14 MPH (12 knots; 6.2 m/s)
Visibility:10 or more sm (16+ km)
Ceiling:25000 feet AGL
Clouds: few clouds at 12000 feet AGL, scattered clouds at 17000 feet AGL, broken clouds at 25000 feet AGL

METAR for:KORD (Chicago/O'Hare Intl, IL, US)
Text:KORD 022051Z 03013KT 10SM FEW021 17/09 A3034 RMK AO2 SLP275 T01720089 56013
Temperature: 17.2°C ( 63°F)
Dewpoint: 8.9°C ( 48°F) [RH = 58%]
Pressure (altimeter):30.34 inches Hg (1027.5 mb) [Sea level pressure: 1027.5 mb]
Winds:from the NNE (30 degrees) at 15 MPH (13 knots; 6.7 m/s)
Visibility:10 or more sm (16+ km)
Ceiling:at least 12,000 feet AGL
Clouds: few clouds at 2100 feet AGL

METAR for:KPDX (Portland Intl Arpt, OR, US)
Text:KPDX 022053Z 30007KT 10SM CLR 28/13 A2993 RMK AO2 SLP133 T02830128 58006 $
Temperature: 28.3°C ( 83°F)
Dewpoint: 12.8°C ( 55°F) [RH = 38%]
Pressure (altimeter):29.93 inches Hg (1013.6 mb) [Sea level pressure: 1013.3 mb]
Winds:from the WNW (300 degrees) at 8 MPH (7 knots; 3.6 m/s)
Visibility:10 or more sm (16+ km)
Ceiling:at least 12,000 feet AGL
Clouds:sky clear below 12,000 feet AGL
QC Flag:SOME DATA ABOVE MAY BE INACCURATE!!!"$" is an indication the sensor requires maintenance.

METAR for:KPHL (Philadelphia Intl, PA, US)
Text:KPHL 022123Z 04016G24KT 7SM RA SCT015 BKN025 OVC030 13/11 A3008 RMK AO2 PK WND 03028/2056 P0002 T01280106
Temperature: 12.8°C ( 55°F)
Dewpoint: 10.6°C ( 51°F) [RH = 86%]
Pressure (altimeter):30.08 inches Hg (1018.7 mb)
Winds:from the NE (40 degrees) at 18 MPH (16 knots; 8.2 m/s) gusting to 28 MPH (24 knots; 12.3 m/s)
Visibility: 7 sm ( 11 km)
Ceiling:2500 feet AGL
Clouds: scattered clouds at 1500 feet AGL, broken clouds at 2500 feet AGL, overcast cloud deck at 3000 feet AGL
Weather:RA (moderate rain)

METAR for:KPHX (Phoenix/Sky Harbor, AZ, US)
Text:KPHX 022051Z VRB03KT 10SM FEW100 SCT250 34/12 A2984 RMK AO2 SLP084 CB DSNT NW T03440117 58023 $
Temperature: 34.4°C ( 94°F)
Dewpoint: 11.7°C ( 53°F) [RH = 25%]
Pressure (altimeter):29.84 inches Hg (1010.6 mb) [Sea level pressure: 1008.4 mb]
Winds:variable direction winds at 3 MPH (3 knots; 1.5 m/s)
Visibility:10 or more sm (16+ km)
Ceiling:at least 12,000 feet AGL
Clouds: few clouds at 10000 feet AGL, scattered clouds at 25000 feet AGL
QC Flag:SOME DATA ABOVE MAY BE INACCURATE!!!"$" is an indication the sensor requires maintenance.

METAR for:KPIT (Pittsburgh Intl, PA, US)
Text:KPIT 022051Z 04009KT 10SM FEW040 FEW065 SCT250 18/07 A3015 RMK AO2 SLP216 T01830072 53004
Temperature: 18.3°C ( 65°F)
Dewpoint: 7.2°C ( 45°F) [RH = 48%]
Pressure (altimeter):30.15 inches Hg (1021.1 mb) [Sea level pressure: 1021.6 mb]
Winds:from the NE (40 degrees) at 10 MPH (9 knots; 4.6 m/s)
Visibility:10 or more sm (16+ km)
Ceiling:at least 12,000 feet AGL
Clouds: few clouds at 4000 feet AGL, few clouds at 6500 feet AGL, scattered clouds at 25000 feet AGL

METAR for:KSAN (San Diego Intl Arpt, CA, US)
Text:KSAN 022051Z 30012G17KT 10SM FEW025 FEW035 23/15 A2994 RMK AO2 SLP136 TCU DSNT NE T02280150 58015
Temperature: 22.8°C ( 73°F)
Dewpoint: 15.0°C ( 59°F) [RH = 61%]
Pressure (altimeter):29.94 inches Hg (1014.0 mb) [Sea level pressure: 1013.6 mb]
Winds:from the WNW (300 degrees) at 14 MPH (12 knots; 6.2 m/s) gusting to 20 MPH (17 knots; 8.7 m/s)
Visibility:10 or more sm (16+ km)
Ceiling:at least 12,000 feet AGL
Clouds: few clouds at 2500 feet AGL, few clouds at 3500 feet AGL

METAR for:KSEA (Seattle-Tacoma Intl, WA, US)
Text:KSEA 022053Z 30005KT 8SM CLR 25/12 A2998 RMK AO2 SLP157 T02500117 58007
Temperature: 25.0°C ( 77°F)
Dewpoint: 11.7°C ( 53°F) [RH = 43%]
Pressure (altimeter):29.98 inches Hg (1015.3 mb) [Sea level pressure: 1015.7 mb]
Winds:from the WNW (300 degrees) at 6 MPH (5 knots; 2.6 m/s)
Visibility: 8 sm ( 13 km)
Ceiling:at least 12,000 feet AGL
Clouds:sky clear below 12,000 feet AGL

METAR for:KSFO (San Francisco Intl, CA, US)
Text:KSFO 022056Z 31015KT 10SM FEW032 22/12 A2998 RMK AO2 SLP151 T02220117 58008
Temperature: 22.2°C ( 72°F)
Dewpoint: 11.7°C ( 53°F) [RH = 51%]
Pressure (altimeter):29.98 inches Hg (1015.3 mb) [Sea level pressure: 1015.1 mb]
Winds:from the NW (310 degrees) at 17 MPH (15 knots; 7.7 m/s)
Visibility:10 or more sm (16+ km)
Ceiling:at least 12,000 feet AGL
Clouds: few clouds at 3200 feet AGL

METAR for:KSLC (Salt Lake City Intl, UT, US)
Text:KSLC 022054Z 31010KT 10SM FEW070 SCT140 BKN220 22/07 A3007 RMK AO2 SLP142 T02220067 58013 $
Temperature: 22.2°C ( 72°F)
Dewpoint: 6.7°C ( 44°F) [RH = 37%]
Pressure (altimeter):30.07 inches Hg (1018.4 mb) [Sea level pressure: 1014.2 mb]
Winds:from the NW (310 degrees) at 12 MPH (10 knots; 5.1 m/s)
Visibility:10 or more sm (16+ km)
Ceiling:22000 feet AGL
Clouds: few clouds at 7000 feet AGL, scattered clouds at 14000 feet AGL, broken clouds at 22000 feet AGL
QC Flag:SOME DATA ABOVE MAY BE INACCURATE!!!"$" is an indication the sensor requires maintenance.

METAR for:KSTL (St Louis/Lambert Int, MO, US)
Text:KSTL 022051Z 03008KT 10SM CLR 26/06 A3024 RMK AO2 SLP236 T02560061 56015
Temperature: 25.6°C ( 78°F)
Dewpoint: 6.1°C ( 43°F) [RH = 29%]
Pressure (altimeter):30.24 inches Hg (1024.1 mb) [Sea level pressure: 1023.6 mb]
Winds:from the NNE (30 degrees) at 9 MPH (8 knots; 4.1 m/s)
Visibility:10 or more sm (16+ km)
Ceiling:at least 12,000 feet AGL
Clouds:sky clear below 12,000 feet AGL

METAR for:KTPA (Tampa Intl Arpt, FL, US)
Text:KTPA 022053Z 32011KT 10SM FEW055 28/11 A2990 RMK AO2 SLP125 T02780111 56013 $
Temperature: 27.8°C ( 82°F)
Dewpoint: 11.1°C ( 52°F) [RH = 35%]
Pressure (altimeter):29.90 inches Hg (1012.6 mb) [Sea level pressure: 1012.5 mb]
Winds:from the NW (320 degrees) at 13 MPH (11 knots; 5.7 m/s)
Visibility:10 or more sm (16+ km)
Ceiling:at least 12,000 feet AGL
Clouds: few clouds at 5500 feet AGL
QC Flag:SOME DATA ABOVE MAY BE INACCURATE!!!"$" is an indication the sensor requires maintenance.